Time;durP1;ratioP1;P1;durP2;ratioP2;P2;SDS_P1;SDS_P2;PMS_P1;PMS_P2;Temp;Humidity;BMP_temperature;BMP_pressure;BME280_temperature;BME280_humidity;BME280_pressure;Samples;Min_cycle;Max_cycle;Signal;HPM_P1;HPM_P2
2021/08/31 00:01:10;;;;;;;14.15;8.18;;;;;;;15.40;100.00;97777.28;5055608;28;20056;-82
2021/08/31 00:03:40;;;;;;;15.23;8.88;;;;;;;15.30;100.00;97777.72;5038217;28;20063;-83
2021/08/31 00:06:15;;;;;;;14.68;9.18;;;;;;;15.42;100.00;97761.34;5038969;28;20055;-82
2021/08/31 00:12:03;;;;;;;17.60;9.95;;;;;;;15.38;100.00;97769.41;5054676;28;20099;-84
2021/08/31 00:14:30;;;;;;;17.98;10.57;;;;;;;15.42;100.00;97788.63;5021197;28;20064;-84
2021/08/31 00:16:57;;;;;;;21.02;11.00;;;;;;;15.33;100.00;97772.38;5020844;28;20048;-83
2021/08/31 00:19:28;;;;;;;18.15;10.65;;;;;;;15.34;100.00;97779.44;5019709;28;20051;-83
2021/08/31 00:21:57;;;;;;;16.27;9.88;;;;;;;15.41;100.00;97796.00;5037976;28;20037;-83
2021/08/31 00:24:49;;;;;;;18.00;9.65;;;;;;;15.31;100.00;97787.50;5024817;28;20714;-82
2021/08/31 00:27:49;;;;;;;18.52;9.85;;;;;;;15.30;100.00;97796.81;5022205;28;20547;-83
2021/08/31 00:30:21;;;;;;;16.98;9.45;;;;;;;15.29;100.00;97776.94;5022482;28;20445;-85
2021/08/31 00:32:48;;;;;;;14.13;9.02;;;;;;;15.41;100.00;97782.38;5060279;28;20081;-82
2021/08/31 00:35:15;;;;;;;14.55;8.90;;;;;;;15.32;100.00;97780.91;5030866;28;20127;-83
2021/08/31 00:37:42;;;;;;;12.82;8.27;;;;;;;15.28;100.00;97775.34;5028658;28;20039;-82
2021/08/31 00:40:22;;;;;;;14.57;8.45;;;;;;;15.35;100.00;97777.50;5046937;28;20041;-83
2021/08/31 00:42:51;;;;;;;21.38;12.15;;;;;;;15.19;100.00;97787.50;5021691;28;20099;-83
2021/08/31 00:45:18;;;;;;;24.42;14.95;;;;;;;15.25;100.00;97783.41;5037836;28;20045;-81
2021/08/31 00:47:48;;;;;;;26.05;15.57;;;;;;;15.29;100.00;97797.94;5037118;28;20037;-82
2021/08/31 00:50:19;;;;;;;34.58;16.08;;;;;;;15.33;100.00;97796.91;5056699;28;20065;-83
2021/08/31 00:52:46;;;;;;;23.88;13.73;;;;;;;15.38;100.00;97796.69;5040653;28;20044;-83
2021/08/31 00:55:16;;;;;;;34.05;16.65;;;;;;;15.31;100.00;97795.69;5057231;28;20124;-83
2021/08/31 00:57:45;;;;;;;36.03;18.38;;;;;;;15.27;100.00;97797.50;5039100;28;20109;-80
2021/08/31 01:00:48;;;;;;;34.00;18.15;;;;;;;15.26;100.00;97807.63;4957512;28;20121;-83
2021/08/31 01:03:15;;;;;;;34.85;19.30;;;;;;;15.17;100.00;97804.22;4974625;28;20134;-83
2021/08/31 01:05:45;;;;;;;35.45;17.95;;;;;;;15.31;100.00;97820.22;4959186;28;20138;-83
2021/08/31 01:08:29;;;;;;;36.85;17.40;;;;;;;14.99;100.00;97798.16;4965847;28;20058;-84
2021/08/31 01:11:02;;;;;;;32.38;18.38;;;;;;;15.13;100.00;97816.13;4965958;28;20058;-84
2021/08/31 01:13:36;;;;;;;38.53;18.80;;;;;;;15.29;100.00;97811.59;4958297;28;20684;-82
2021/08/31 01:16:19;;;;;;;38.25;17.63;;;;;;;15.17;100.00;97809.66;4968150;28;20042;-84
2021/08/31 01:18:53;;;;;;;33.05;16.15;;;;;;;15.30;100.00;97813.19;5067012;23;20473;-78
2021/08/31 01:21:20;;;;;;;29.67;14.45;;;;;;;15.30;100.00;97822.19;5071890;28;20048;-79
2021/08/31 01:23:49;;;;;;;21.63;12.55;;;;;;;15.26;100.00;97817.72;5051432;28;20155;-79
2021/08/31 01:26:16;;;;;;;19.02;10.82;;;;;;;15.27;100.00;97822.06;5051407;28;20069;-79
2021/08/31 01:28:43;;;;;;;13.38;8.77;;;;;;;15.27;100.00;97817.41;5050544;28;20686;-78
2021/08/31 01:31:11;;;;;;;11.25;8.15;;;;;;;15.32;100.00;97825.34;5050200;28;20040;-78
2021/08/31 01:33:38;;;;;;;10.10;6.28;;;;;;;15.20;100.00;97824.56;5052452;28;20051;-79
2021/08/31 01:36:17;;;;;;;9.95;6.20;;;;;;;15.27;100.00;97822.84;5050887;28;20036;-78
2021/08/31 01:38:44;;;;;;;10.20;6.28;;;;;;;15.37;100.00;97829.78;5051227;28;20060;-78
2021/08/31 01:41:11;;;;;;;9.43;6.28;;;;;;;15.37;100.00;97822.41;5033058;28;20056;-79
2021/08/31 01:43:38;;;;;;;9.77;6.53;;;;;;;15.24;100.00;97825.44;5032624;28;20040;-79
2021/08/31 01:46:05;;;;;;;12.82;6.68;;;;;;;15.27;100.00;97822.84;5048338;28;20041;-78
2021/08/31 01:48:32;;;;;;;10.35;5.95;;;;;;;15.24;100.00;97830.91;5048093;28;20045;-78
2021/08/31 01:50:58;;;;;;;8.55;5.95;;;;;;;15.28;100.00;97829.13;5048545;28;20044;-77
2021/08/31 01:53:25;;;;;;;9.30;5.90;;;;;;;15.26;100.00;97840.34;5047660;28;20517;-77
2021/08/31 01:55:51;;;;;;;8.93;6.38;;;;;;;15.27;100.00;97843.88;5048585;28;20049;-78
2021/08/31 01:58:18;;;;;;;8.55;6.28;;;;;;;15.18;100.00;97835.78;5048275;28;20045;-78
2021/08/31 02:00:45;;;;;;;12.35;6.20;;;;;;;15.21;100.00;97843.28;5047732;28;20041;-77
2021/08/31 02:03:12;;;;;;;15.18;8.35;;;;;;;15.03;100.00;97849.28;5029750;28;20531;-77
2021/08/31 02:05:39;;;;;;;22.85;11.70;;;;;;;15.04;100.00;97839.97;5048447;28;20056;-81
2021/08/31 02:08:06;;;;;;;24.63;13.98;;;;;;;15.08;100.00;97849.06;5047588;28;20076;-79
2021/08/31 02:10:33;;;;;;;28.98;14.98;;;;;;;15.00;100.00;97845.31;5049773;28;20075;-80
2021/08/31 02:12:59;;;;;;;33.90;16.63;;;;;;;14.97;100.00;97829.63;5048616;28;20048;-79
2021/08/31 02:15:26;;;;;;;33.47;16.73;;;;;;;14.96;100.00;97838.94;5048870;28;20052;-79
2021/08/31 02:17:53;;;;;;;33.78;16.70;;;;;;;15.04;100.00;97848.97;5048691;28;20136;-77
2021/08/31 02:20:20;;;;;;;36.13;17.90;;;;;;;14.88;100.00;97832.47;5048893;28;20127;-80
2021/08/31 02:22:47;;;;;;;36.63;18.45;;;;;;;15.00;100.00;97848.03;5049401;28;20103;-77
2021/08/31 02:25:14;;;;;;;30.38;17.13;;;;;;;15.04;100.00;97839.97;5050290;28;20329;-77
2021/08/31 02:27:40;;;;;;;33.15;17.60;;;;;;;14.99;100.00;97847.22;5056000;28;20051;-76
2021/08/31 02:30:11;;;;;;;36.17;18.42;;;;;;;14.97;100.00;97852.22;5050704;28;20461;-75
2021/08/31 02:32:37;;;;;;;32.42;17.85;;;;;;;15.04;100.00;97839.97;5049828;28;20056;-78
2021/08/31 02:35:04;;;;;;;40.70;18.33;;;;;;;15.06;100.00;97846.69;5030720;28;20049;-77
2021/08/31 02:37:31;;;;;;;33.83;17.55;;;;;;;15.04;100.00;97842.72;5030920;28;20507;-76
2021/08/31 02:39:58;;;;;;;35.20;17.60;;;;;;;15.03;100.00;97854.75;5051783;28;20043;-77
2021/08/31 02:42:25;;;;;;;32.13;18.05;;;;;;;14.97;100.00;97852.22;5053684;28;20045;-77
2021/08/31 02:44:51;;;;;;;36.60;19.38;;;;;;;15.07;100.00;97858.41;5034730;28;20045;-79
2021/08/31 02:47:18;;;;;;;34.65;18.08;;;;;;;14.88;100.00;97845.28;5051138;28;20071;-77
2021/08/31 02:49:45;;;;;;;38.80;19.13;;;;;;;14.99;100.00;97857.38;5052678;28;20041;-79
2021/08/31 02:52:12;;;;;;;34.80;18.83;;;;;;;14.99;100.00;97851.91;5052536;28;20178;-77
2021/08/31 02:54:39;;;;;;;37.78;19.33;;;;;;;14.96;100.00;97856.09;5052208;28;20037;-79
2021/08/31 02:57:05;;;;;;;31.35;18.42;;;;;;;15.05;100.00;97857.91;5051654;28;20451;-79
2021/08/31 02:59:32;;;;;;;30.85;15.70;;;;;;;14.88;100.00;97862.44;5034790;28;20041;-79
2021/08/31 03:02:05;;;;;;;30.35;15.30;;;;;;;14.95;100.00;97870.88;5052596;28;20292;-78
2021/08/31 03:04:35;;;;;;;32.75;17.48;;;;;;;14.99;100.00;97860.88;5052378;28;20040;-79
2021/08/31 03:07:03;;;;;;;34.55;18.65;;;;;;;15.08;100.00;97854.53;5051633;28;20466;-79
2021/08/31 03:09:31;;;;;;;32.95;18.80;;;;;;;14.95;100.00;97856.44;5051961;28;20040;-79
2021/08/31 03:11:57;;;;;;;39.20;19.48;;;;;;;14.93;100.00;97856.78;5053316;28;20154;-81
2021/08/31 03:14:24;;;;;;;35.17;18.95;;;;;;;15.04;100.00;97862.59;5050712;28;20041;-78
2021/08/31 03:16:51;;;;;;;37.03;20.08;;;;;;;15.02;100.00;97850.44;5051407;28;20044;-79
2021/08/31 03:19:20;;;;;;;32.95;19.35;;;;;;;14.90;100.00;97871.06;5052187;28;20439;-77
2021/08/31 03:21:48;;;;;;;36.17;18.95;;;;;;;15.01;100.00;97863.28;5034297;28;20528;-80
2021/08/31 03:24:15;;;;;;;41.28;20.10;;;;;;;14.91;100.00;97863.69;5036047;28;20160;-79
2021/08/31 03:26:43;;;;;;;36.00;18.67;;;;;;;14.90;100.00;97873.81;5053971;28;20052;-80
2021/08/31 03:29:10;;;;;;;35.42;19.05;;;;;;;14.86;100.00;97883.00;5053592;28;20053;-80
2021/08/31 03:31:36;;;;;;;34.72;19.65;;;;;;;14.82;100.00;97882.88;5053204;28;20135;-80
2021/08/31 03:34:03;;;;;;;36.78;20.55;;;;;;;14.91;100.00;97885.50;5051972;28;20037;-78
2021/08/31 03:36:30;;;;;;;41.38;20.50;;;;;;;14.75;100.00;97893.53;5066483;28;20306;-81
2021/08/31 03:38:58;;;;;;;38.00;21.02;;;;;;;14.82;100.00;97888.31;5058006;28;20044;-80
2021/08/31 03:41:25;;;;;;;33.15;19.77;;;;;;;14.69;100.00;97892.13;5076274;28;20067;-79
2021/08/31 03:43:51;;;;;;;42.25;20.05;;;;;;;14.79;100.00;97893.63;5078584;28;20041;-80
2021/08/31 03:46:18;;;;;;;36.85;19.25;;;;;;;14.82;100.00;97884.78;5070411;28;20071;-77
2021/08/31 03:48:45;;;;;;;35.97;19.60;;;;;;;14.86;100.00;97893.91;5033453;28;20037;-79
2021/08/31 03:51:11;;;;;;;41.92;20.63;;;;;;;14.81;100.00;97883.97;5052666;28;20046;-78
2021/08/31 03:53:39;;;;;;;48.17;21.20;;;;;;;14.77;100.00;97909.53;5036853;28;20284;-79
2021/08/31 03:56:05;;;;;;;35.33;20.52;;;;;;;14.83;100.00;97910.91;5051481;28;20045;-77
2021/08/31 03:58:32;;;;;;;43.65;21.92;;;;;;;14.87;100.00;97906.38;5050469;28;20102;-77
2021/08/31 04:00:58;;;;;;;43.88;22.67;;;;;;;14.81;100.00;97919.41;5050037;28;20045;-79
2021/08/31 04:03:25;;;;;;;41.97;22.40;;;;;;;14.80;100.00;97909.66;5050092;28;20060;-80
2021/08/31 04:05:51;;;;;;;40.72;22.05;;;;;;;14.89;100.00;97915.03;5051209;28;20041;-78
2021/08/31 04:08:19;;;;;;;35.65;20.77;;;;;;;14.87;100.00;97915.38;5068090;28;20284;-77
2021/08/31 04:10:45;;;;;;;39.65;20.98;;;;;;;14.79;100.00;97915.44;5050031;28;20055;-81
2021/08/31 04:13:14;;;;;;;40.90;21.00;;;;;;;14.92;100.00;97922.53;5049905;28;20049;-78
2021/08/31 04:15:40;;;;;;;39.70;21.10;;;;;;;14.78;100.00;97920.13;5048709;28;20044;-78
2021/08/31 04:18:07;;;;;;;41.10;21.90;;;;;;;14.79;100.00;97931.78;5050693;28;20050;-77
2021/08/31 04:20:33;;;;;;;47.28;23.48;;;;;;;14.96;100.00;97935.16;5049941;28;20255;-78
2021/08/31 04:23:00;;;;;;;42.75;21.42;;;;;;;14.77;100.00;97934.88;5049454;28;20067;-78
2021/08/31 04:25:27;;;;;;;36.92;21.35;;;;;;;14.77;100.00;97925.88;5050265;28;20072;-80
2021/08/31 04:27:53;;;;;;;44.85;22.67;;;;;;;14.75;100.00;97923.50;5051047;28;20349;-80
2021/08/31 04:30:20;;;;;;;51.33;23.30;;;;;;;14.69;100.00;97930.28;5051308;28;20052;-81
2021/08/31 04:32:47;;;;;;;45.22;23.05;;;;;;;14.66;100.00;97936.41;5051191;28;20060;-79
2021/08/31 04:35:13;;;;;;;40.72;22.33;;;;;;;14.70;100.00;97925.63;5051071;28;20047;-78
2021/08/31 04:37:40;;;;;;;44.13;23.25;;;;;;;14.78;100.00;97941.91;5049578;28;20033;-79
2021/08/31 04:40:08;;;;;;;43.92;22.90;;;;;;;14.71;100.00;97941.63;5049738;28;20049;-79
2021/08/31 04:42:34;;;;;;;49.20;23.77;;;;;;;14.82;100.00;97945.56;5049155;28;20045;-80
2021/08/31 04:45:01;;;;;;;48.08;23.70;;;;;;;14.78;100.00;97947.38;5049475;28;20139;-79
2021/08/31 04:47:27;;;;;;;46.13;23.30;;;;;;;14.74;100.00;97945.63;5049078;28;20099;-78
2021/08/31 04:49:54;;;;;;;47.63;22.80;;;;;;;14.67;100.00;97945.38;5049641;28;20045;-78
2021/08/31 04:52:20;;;;;;;47.33;24.35;;;;;;;14.69;100.00;97943.91;5049469;28;20048;-79
2021/08/31 04:54:47;;;;;;;43.42;24.00;;;;;;;14.75;100.00;97950.75;5065636;28;20059;-82
2021/08/31 04:57:18;;;;;;;55.20;26.30;;;;;;;14.65;100.00;97945.72;5050046;28;20076;-77
2021/08/31 04:59:44;;;;;;;43.53;23.85;;;;;;;14.73;100.00;97946.78;5049335;28;20140;-77
2021/08/31 05:02:11;;;;;;;44.17;24.38;;;;;;;14.72;100.00;97953.34;5048787;28;20377;-77
2021/08/31 05:04:37;;;;;;;43.60;23.55;;;;;;;14.71;100.00;97947.09;5049695;28;20358;-83
2021/08/31 05:07:04;;;;;;;46.97;25.27;;;;;;;14.56;100.00;97949.63;5049546;28;20045;-80
2021/08/31 05:09:31;;;;;;;46.28;24.42;;;;;;;14.72;100.00;97954.16;5049852;28;20464;-79
2021/08/31 05:11:58;;;;;;;49.35;26.25;;;;;;;14.71;100.00;97958.00;5049922;28;20060;-79
2021/08/31 05:14:24;;;;;;;53.30;25.40;;;;;;;14.52;100.00;97954.16;5049387;28;20037;-77
2021/08/31 05:16:51;;;;;;;46.40;25.77;;;;;;;14.76;100.00;97957.00;5048214;28;20406;-77
2021/08/31 05:19:17;;;;;;;45.63;23.35;;;;;;;14.74;100.00;97953.78;5048696;28;20567;-78
2021/08/31 05:21:47;;;;;;;47.17;23.65;;;;;;;14.68;100.00;97960.59;5046722;28;20045;-78
2021/08/31 05:24:14;;;;;;;43.85;23.75;;;;;;;14.55;100.00;97951.56;5047905;28;20033;-78
2021/08/31 05:26:40;;;;;;;44.05;24.23;;;;;;;14.72;100.00;97967.78;5047478;28;20055;-78
2021/08/31 05:29:07;;;;;;;45.60;25.02;;;;;;;14.64;100.00;97954.22;5047936;28;20052;-78
2021/08/31 05:34:26;;;;;;;48.47;25.88;;;;;;;14.55;100.00;97946.13;5074267;28;20053;-80
2021/08/31 05:36:57;;;;;;;51.38;26.23;;;;;;;14.47;100.00;97941.53;5075300;28;20041;-81
2021/08/31 05:39:25;;;;;;;50.28;26.10;;;;;;;14.60;100.00;97945.91;5075443;28;20449;-81
2021/08/31 05:41:51;;;;;;;51.42;27.05;;;;;;;14.53;100.00;97953.03;5039865;28;20041;-80
2021/08/31 05:44:18;;;;;;;47.38;25.77;;;;;;;14.58;100.00;97955.56;5075166;28;20045;-79
2021/08/31 05:46:44;;;;;;;48.17;24.58;;;;;;;14.50;100.00;97953.69;5071678;28;20048;-80
2021/08/31 05:49:11;;;;;;;48.33;25.15;;;;;;;14.60;100.00;97958.75;5054078;28;20052;-81
2021/08/31 05:51:37;;;;;;;44.15;24.27;;;;;;;14.70;100.00;97955.59;5072430;28;20049;-80
2021/08/31 05:54:05;;;;;;;46.90;25.23;;;;;;;14.59;100.00;97957.13;5073157;28;20089;-77
2021/08/31 05:56:31;;;;;;;47.55;26.35;;;;;;;14.52;100.00;97957.69;5054985;28;20094;-80
2021/08/31 05:58:58;;;;;;;47.17;25.58;;;;;;;14.62;100.00;97965.44;5055943;28;20462;-82
2021/08/31 06:01:24;;;;;;;51.97;25.52;;;;;;;14.68;100.00;97955.97;5072948;28;20487;-81
2021/08/31 06:03:51;;;;;;;51.38;26.70;;;;;;;14.57;100.00;97962.13;5039878;28;20060;-79
2021/08/31 06:06:18;;;;;;;46.95;26.10;;;;;;;14.63;100.00;97967.06;5054784;28;20045;-80
2021/08/31 06:08:45;;;;;;;47.70;24.25;;;;;;;14.55;100.00;97973.38;5056168;28;20044;-82
2021/08/31 06:11:16;;;;;;;46.85;25.08;;;;;;;14.37;100.00;97980.06;5074742;28;20431;-83
2021/08/31 06:13:42;;;;;;;50.65;25.88;;;;;;;14.55;100.00;97986.19;5039797;28;20059;-81
2021/08/31 06:16:09;;;;;;;46.67;25.08;;;;;;;14.59;100.00;97982.47;5076894;28;20049;-76
2021/08/31 06:18:35;;;;;;;49.65;25.50;;;;;;;14.48;100.00;97966.84;5057940;28;20051;-81
2021/08/31 06:21:03;;;;;;;45.67;24.25;;;;;;;14.48;100.00;97970.34;5075409;28;20119;-81
2021/08/31 06:23:31;;;;;;;46.80;23.67;;;;;;;14.60;100.00;97977.81;5075689;28;20058;-83
2021/08/31 06:25:57;;;;;;;40.28;23.52;;;;;;;14.43;100.00;97962.38;5058257;28;20110;-81
2021/08/31 06:28:24;;;;;;;39.15;23.08;;;;;;;14.59;100.00;97959.84;5075230;28;20045;-79
2021/08/31 06:30:51;;;;;;;42.60;22.67;;;;;;;14.52;100.00;97965.06;5064874;28;20051;-83
2021/08/31 06:33:17;;;;;;;36.35;20.88;;;;;;;14.45;100.00;97959.34;5071499;28;20048;-81
2021/08/31 06:35:46;;;;;;;38.00;22.05;;;;;;;14.67;100.00;97976.16;5072633;28;20029;-80
2021/08/31 06:38:16;;;;;;;37.80;20.92;;;;;;;14.34;100.00;97940.66;5061945;28;20048;-80
2021/08/31 06:40:43;;;;;;;35.63;21.75;;;;;;;14.38;100.00;97967.22;5060482;28;20514;-80
2021/08/31 06:43:10;;;;;;;41.40;22.63;;;;;;;14.53;100.00;97970.16;5075401;28;20407;-81
2021/08/31 06:45:37;;;;;;;37.22;22.05;;;;;;;14.55;100.00;97978.81;5072805;28;20594;-80
2021/08/31 06:48:04;;;;;;;39.22;21.67;;;;;;;14.73;100.00;97985.72;5073755;28;20036;-80
2021/08/31 06:50:33;;;;;;;34.17;21.25;;;;;;;14.69;100.00;97986.72;5067325;28;20079;-80
2021/08/31 06:53:00;;;;;;;39.58;21.75;;;;;;;14.60;100.00;97977.81;5078431;28;20044;-80
2021/08/31 06:55:27;;;;;;;34.35;21.00;;;;;;;14.56;100.00;97976.88;5069895;28;20033;-80
2021/08/31 06:57:53;;;;;;;37.70;21.48;;;;;;;14.62;100.00;97973.63;5065240;28;20070;-79
2021/08/31 07:00:20;;;;;;;35.20;21.30;;;;;;;14.56;100.00;97983.13;5070851;28;20048;-80
2021/08/31 07:02:47;;;;;;;31.33;19.15;;;;;;;14.58;100.00;97982.81;5054039;28;20641;-80
2021/08/31 07:05:13;;;;;;;30.80;17.42;;;;;;;14.49;100.00;97992.94;5057704;28;20043;-82
2021/08/31 07:07:40;;;;;;;32.97;19.55;;;;;;;14.59;100.00;97985.19;5072290;28;20044;-81
2021/08/31 07:10:08;;;;;;;33.58;19.38;;;;;;;14.63;100.00;97999.75;5071490;28;20052;-80
2021/08/31 07:12:34;;;;;;;35.67;19.33;;;;;;;14.68;100.00;97996.84;5053241;28;20048;-81
2021/08/31 07:15:01;;;;;;;35.53;20.85;;;;;;;14.46;100.00;97994.41;5063217;28;20183;-82
2021/08/31 07:17:28;;;;;;;35.25;20.73;;;;;;;14.49;100.00;97995.69;5069923;28;20044;-80
2021/08/31 07:19:54;;;;;;;34.28;20.38;;;;;;;14.41;100.00;97991.88;5070963;28;20060;-81
2021/08/31 07:22:21;;;;;;;35.42;20.33;;;;;;;14.56;100.00;98001.38;5061260;28;20044;-82
2021/08/31 07:24:47;;;;;;;39.03;22.10;;;;;;;14.62;100.00;98009.06;5072798;28;20043;-82
2021/08/31 07:27:15;;;;;;;37.63;22.23;;;;;;;14.70;100.00;98002.75;5073335;28;20456;-79
2021/08/31 07:29:42;;;;;;;33.58;20.48;;;;;;;14.60;100.00;98005.88;5062266;28;20072;-82
2021/08/31 07:32:09;;;;;;;37.55;21.73;;;;;;;14.52;100.00;98014.91;5069654;28;20051;-80
2021/08/31 07:34:38;;;;;;;33.95;21.15;;;;;;;14.60;100.00;98014.03;5075224;28;20074;-79
2021/08/31 07:41:20;;;;;;;41.67;22.88;;;;;;;14.54;100.00;98023.53;5167094;22;20043;-79
2021/08/31 07:44:07;;;;;;;;;;;;;;;;;;;;;
2021/08/31 07:46:57;;;;;;;40.50;22.05;;;;;;;14.33;100.00;98039.84;5079158;28;20051;-80
2021/08/31 07:49:27;;;;;;;33.88;20.67;;;;;;;14.32;100.00;98018.41;5067225;28;20036;-80
2021/08/31 07:52:15;;;;;;;32.10;18.55;;;;;;;14.30;100.00;98018.69;5055253;28;20049;-79
2021/08/31 07:59:26;;;;;;;26.00;15.60;;;;;;;14.58;100.00;98068.03;5008025;28;20258;-81
2021/08/31 08:01:59;;;;;;;24.90;15.18;;;;;;;14.54;100.00;98069.03;5017287;28;20465;-81
2021/08/31 08:04:58;;;;;;;24.08;14.10;;;;;;;14.45;100.00;98044.59;5005419;28;20041;-81
2021/08/31 08:07:57;;;;;;;22.85;14.05;;;;;;;14.54;100.00;98066.31;4998287;28;20045;-82
2021/08/31 08:11:15;;;;;;;;;;;;;;;;;;;;;
2021/08/31 08:17:23;;;;;;;30.85;17.67;;;;;;;14.63;100.00;98062.44;4983827;28;20042;-81
2021/08/31 08:20:10;;;;;;;38.40;20.27;;;;;;;14.60;100.00;98049.47;4977495;28;20078;-81
2021/08/31 08:23:13;;;;;;;38.35;21.13;;;;;;;14.71;100.00;98061.56;4964608;28;20054;-83
2021/08/31 08:25:49;;;;;;;40.13;21.80;;;;;;;14.80;100.00;98061.50;4963072;28;20086;-83
2021/08/31 08:28:36;;;;;;;37.58;21.33;;;;;;;15.04;100.00;98064.38;4966775;28;20060;-84
2021/08/31 08:31:42;;;;;;;36.80;21.13;;;;;;;15.21;100.00;98082.50;4970795;28;20084;-83
2021/08/31 08:34:32;;;;;;;34.35;19.52;;;;;;;15.09;100.00;98088.72;4953055;28;20046;-81
2021/08/31 08:37:27;;;;;;;30.92;18.73;;;;;;;15.15;100.00;98075.69;4907124;29;20058;-83
2021/08/31 08:40:35;;;;;;;35.63;20.23;;;;;;;15.21;100.00;98077.06;4941024;29;20059;-83
2021/08/31 08:43:28;;;;;;;41.33;19.58;;;;;;;14.95;100.00;98071.81;4920872;29;20051;-83
2021/08/31 08:46:44;;;;;;;33.15;19.42;;;;;;;15.08;100.00;98080.84;4925988;29;20130;-82
2021/08/31 08:49:39;;;;;;;36.03;19.17;;;;;;;14.92;100.00;98067.00;4940182;28;20096;-82
2021/08/31 08:52:40;;;;;;;;;;;;;;;;;;;;;
2021/08/31 08:55:24;;;;;;;32.88;18.60;;;;;;;15.02;100.00;98060.38;5045914;28;20523;-82
2021/08/31 08:58:48;;;;;;;36.83;17.98;;;;;;;14.97;100.00;98056.72;5048042;28;20462;-81
2021/08/31 09:04:21;;;;;;;33.25;18.27;;;;;;;15.53;100.00;98079.84;5156435;22;20057;-79
2021/08/31 09:06:48;;;;;;;28.02;17.30;;;;;;;15.38;100.00;98074.97;5053489;28;20496;-78
2021/08/31 09:09:15;;;;;;;30.25;17.15;;;;;;;15.46;100.00;98078.78;5071386;28;20148;-78
2021/08/31 09:11:46;;;;;;;29.15;17.60;;;;;;;15.29;100.00;98071.53;5072661;28;20095;-78
2021/08/31 09:14:27;;;;;;;33.05;18.70;;;;;;;15.48;100.00;98080.06;5070749;28;20048;-78
2021/08/31 09:16:59;;;;;;;30.42;17.90;;;;;;;15.52;100.00;98077.44;5070537;28;20454;-76
2021/08/31 09:19:36;;;;;;;34.33;18.25;;;;;;;15.76;100.00;98074.81;5054157;28;20048;-76
2021/08/31 09:22:17;;;;;;;29.50;17.40;;;;;;;15.84;100.00;98079.38;5071377;28;20041;-78
2021/08/31 09:25:09;;;;;;;26.70;15.75;;;;;;;16.05;100.00;98082.03;5057237;28;20434;-76
2021/08/31 09:27:38;;;;;;;24.90;15.18;;;;;;;16.32;100.00;98081.34;5070402;28;20055;-76
2021/08/31 09:30:23;;;;;;;23.13;14.85;;;;;;;16.57;100.00;98080.25;5053270;28;20055;-77
2021/08/31 09:33:10;;;;;;;23.73;13.80;;;;;;;16.45;100.00;98076.69;5072635;28;20064;-79
2021/08/31 09:35:42;;;;;;;28.55;13.25;;;;;;;16.42;100.00;98072.69;5070638;28;20402;-76
2021/08/31 09:38:11;;;;;;;19.98;12.57;;;;;;;16.59;100.00;98074.44;5070771;28;20052;-78
2021/08/31 09:40:39;;;;;;;17.25;12.30;;;;;;;16.61;100.00;98070.22;5073857;28;20051;-77
2021/08/31 09:43:12;;;;;;;20.30;11.98;;;;;;;16.59;100.00;98074.44;5071735;28;20059;-78
2021/08/31 09:45:40;;;;;;;19.00;11.55;;;;;;;16.90;100.00;98080.09;5072763;28;20046;-78
2021/08/31 09:48:09;;;;;;;20.55;11.63;;;;;;;16.72;100.00;98079.53;5070605;28;20109;-76
2021/08/31 09:50:48;;;;;;;23.48;12.38;;;;;;;16.62;100.00;98084.69;5071618;28;20045;-78
2021/08/31 09:53:18;;;;;;;25.20;12.23;;;;;;;16.71;100.00;98090.84;5074139;28;20037;-78
2021/08/31 09:55:50;;;;;;;20.42;11.88;;;;;;;16.60;100.00;98087.75;5075229;28;20048;-78
2021/08/31 09:58:21;;;;;;;20.15;12.23;;;;;;;16.34;100.00;98081.81;5073275;28;20620;-77
2021/08/31 10:00:49;;;;;;;21.05;11.30;;;;;;;16.39;100.00;98089.78;5073026;28;20060;-80
2021/08/31 10:03:17;;;;;;;20.75;11.57;;;;;;;16.18;100.00;98078.94;5075248;28;20068;-79
2021/08/31 10:05:44;;;;;;;20.15;10.70;;;;;;;16.30;100.00;98088.31;5057101;28;20040;-80
2021/08/31 10:08:13;;;;;;;20.48;11.52;;;;;;;16.55;100.00;98089.91;5072521;28;20052;-77
2021/08/31 10:10:42;;;;;;;17.83;10.27;;;;;;;16.42;100.00;98099.22;5072530;28;20106;-79
2021/08/31 10:13:14;;;;;;;17.50;10.82;;;;;;;16.20;100.00;98103.22;5071412;28;20051;-78
2021/08/31 10:15:44;;;;;;;19.48;11.25;;;;;;;16.26;100.00;98103.78;5070225;28;20041;-78
2021/08/31 10:18:11;;;;;;;20.02;11.25;;;;;;;16.13;100.00;98101.03;5069009;28;20044;-78
2021/08/31 10:20:44;;;;;;;16.83;10.68;;;;;;;16.08;100.00;98117.63;5072555;28;20041;-76
2021/08/31 10:23:14;;;;;;;16.45;11.10;;;;;;;15.99;100.00;98116.94;5069878;28;20044;-75
2021/08/31 10:25:41;;;;;;;21.02;11.93;;;;;;;15.94;100.00;98119.09;5070481;28;20041;-78
2021/08/31 10:28:26;;;;;;;19.52;11.73;;;;;;;15.71;100.00;98117.88;5062226;28;20051;-74
2021/08/31 10:30:55;;;;;;;21.13;13.25;;;;;;;15.82;100.00;98119.06;5052670;28;20056;-76
2021/08/31 10:33:38;;;;;;;20.33;12.85;;;;;;;15.86;100.00;98128.16;5048750;28;20099;-77
2021/08/31 10:36:07;;;;;;;21.17;13.25;;;;;;;15.97;100.00;98130.16;5050084;28;20045;-76
2021/08/31 10:38:53;;;;;;;25.23;14.38;;;;;;;15.88;100.00;98140.34;5070573;28;20635;-77
2021/08/31 10:41:44;;;;;;;21.25;13.50;;;;;;;15.73;100.00;98121.06;5054420;28;20389;-77
2021/08/31 10:44:14;;;;;;;21.55;13.15;;;;;;;15.92;100.00;98133.09;5055511;28;20503;-76
2021/08/31 10:47:06;;;;;;;22.88;14.60;;;;;;;15.78;100.00;98129.06;5050662;28;20037;-75
2021/08/31 10:49:59;;;;;;;21.77;14.15;;;;;;;15.81;100.00;98125.66;5051671;28;20447;-80
2021/08/31 10:52:37;;;;;;;20.08;12.75;;;;;;;15.77;100.00;98125.50;5026179;28;20060;-76
2021/08/31 10:55:25;;;;;;;20.42;12.02;;;;;;;15.58;100.00;98138.88;5049335;28;20064;-78
2021/08/31 10:58:08;;;;;;;18.70;12.57;;;;;;;15.61;100.00;98135.50;5064738;28;20047;-78
2021/08/31 11:00:41;;;;;;;18.10;11.50;;;;;;;15.54;100.00;98146.94;5069426;28;20045;-77
2021/08/31 11:03:08;;;;;;;21.88;12.57;;;;;;;15.62;100.00;98144.44;5057329;28;20577;-79
2021/08/31 11:05:35;;;;;;;17.88;11.23;;;;;;;15.62;100.00;98139.00;5054719;28;20045;-77
2021/08/31 11:08:02;;;;;;;19.55;11.68;;;;;;;15.68;100.00;98145.84;5053180;28;20041;-80
2021/08/31 11:10:42;;;;;;;18.83;11.65;;;;;;;15.50;100.00;98147.94;5056593;28;20454;-79
2021/08/31 11:13:16;;;;;;;20.25;11.88;;;;;;;15.52;100.00;98143.75;5056752;28;20048;-79
2021/08/31 11:15:46;;;;;;;18.90;12.32;;;;;;;15.62;100.00;98147.97;5056700;28;20048;-79
2021/08/31 11:18:15;;;;;;;20.13;11.95;;;;;;;15.64;100.00;98150.41;5054126;28;20048;-78
2021/08/31 11:20:46;;;;;;;20.65;12.90;;;;;;;15.54;100.00;98151.59;5037159;28;20041;-77
2021/08/31 11:23:20;;;;;;;20.48;12.40;;;;;;;15.45;100.00;98151.69;5053102;28;20124;-79
2021/08/31 11:25:49;;;;;;;22.30;13.15;;;;;;;15.58;100.00;98155.25;5051638;28;20660;-77
2021/08/31 11:28:19;;;;;;;23.77;13.30;;;;;;;15.63;100.00;98163.25;5052423;28;20049;-77
2021/08/31 11:30:48;;;;;;;19.40;12.32;;;;;;;15.82;100.00;98163.53;5036019;28;20448;-78
2021/08/31 11:33:17;;;;;;;20.92;13.38;;;;;;;15.84;100.00;98158.56;5050997;28;20048;-76
2021/08/31 11:35:46;;;;;;;18.33;12.20;;;;;;;15.91;100.00;98164.25;5051742;28;20490;-77
2021/08/31 11:38:12;;;;;;;15.57;10.65;;;;;;;15.88;100.00;98164.13;5051766;28;20067;-76
2021/08/31 11:40:39;;;;;;;16.95;11.38;;;;;;;15.73;100.00;98171.00;5052095;28;20052;-77
2021/08/31 11:43:06;;;;;;;17.27;11.40;;;;;;;15.77;100.00;98162.97;5051488;28;20068;-77
2021/08/31 11:45:38;;;;;;;19.02;11.95;;;;;;;15.67;100.00;98183.25;5050849;28;20106;-75
2021/08/31 11:48:06;;;;;;;20.73;13.30;;;;;;;15.82;100.00;98177.19;5050521;28;20471;-76
2021/08/31 11:50:33;;;;;;;28.17;13.82;;;;;;;15.99;100.00;98179.75;5051057;28;20107;-75
2021/08/31 11:53:15;;;;;;;20.77;13.68;;;;;;;16.00;100.00;98180.56;5050341;28;20043;-75
2021/08/31 11:55:42;;;;;;;22.08;13.82;;;;;;;15.85;100.00;98184.72;5069861;28;20059;-76